Time;durP1;ratioP1;P1;durP2;ratioP2;P2;SDS_P1;SDS_P2;PMS_P1;PMS_P2;Temp;Humidity;BMP_temperature;BMP_pressure;BME280_temperature;BME280_humidity;BME280_pressure;Samples;Min_cycle;Max_cycle;Signal;HPM_P1;HPM_P2
2022/12/13 00:01:55;;;;;;;1.58;0.60;;;23.30;49.40;;;;;;5072619;28;20379;-79
2022/12/13 00:04:25;;;;;;;1.48;0.70;;;23.40;48.90;;;;;;5073784;28;20378;-79
2022/12/13 00:06:53;;;;;;;3.03;0.73;;;23.50;48.30;;;;;;5073819;28;20441;-79
2022/12/13 00:09:20;;;;;;;2.10;0.80;;;23.70;47.90;;;;;;5073478;28;20370;-80
2022/12/13 00:11:48;;;;;;;1.83;0.70;;;23.60;49.90;;;;;;5073475;28;20382;-79
2022/12/13 00:14:16;;;;;;;1.60;0.80;;;23.90;47.00;;;;;;5073473;28;20861;-78
2022/12/13 00:16:47;;;;;;;2.38;0.57;;;23.90;49.70;;;;;;5073854;28;20401;-80
2022/12/13 00:19:16;;;;;;;1.08;0.47;;;24.10;48.90;;;;;;5073292;28;20377;-79
2022/12/13 00:21:43;;;;;;;3.65;0.70;;;24.40;49.60;;;;;;5073691;28;20374;-80
2022/12/13 00:24:10;;;;;;;1.73;0.50;;;24.80;47.40;;;;;;5073338;28;20370;-79
2022/12/13 00:26:37;;;;;;;2.20;0.70;;;25.00;47.40;;;;;;5073263;28;20379;-81
2022/12/13 00:29:07;;;;;;;2.10;0.60;;;24.90;48.40;;;;;;5073043;28;20741;-80
2022/12/13 00:31:35;;;;;;;1.65;0.60;;;25.40;48.30;;;;;;5073354;28;20417;-79
2022/12/13 00:34:02;;;;;;;2.58;0.68;;;25.30;46.90;;;;;;5073027;28;20373;-79
2022/12/13 00:36:29;;;;;;;1.38;0.60;;;25.10;45.80;;;;;;5073043;28;20375;-80
2022/12/13 00:38:59;;;;;;;1.33;0.47;;;24.90;46.40;;;;;;5073008;28;20366;-79
2022/12/13 00:41:32;;;;;;;2.20;0.57;;;24.70;45.80;;;;;;5073962;28;20389;-79
2022/12/13 00:44:00;;;;;;;1.70;0.57;;;24.70;46.30;;;;;;5072964;28;20457;-78
2022/12/13 00:46:28;;;;;;;1.20;0.50;;;24.60;45.80;;;;;;5071724;28;20387;-80
2022/12/13 00:48:57;;;;;;;1.83;0.50;;;24.60;45.00;;;;;;5073196;28;20886;-81
2022/12/13 00:51:25;;;;;;;1.85;0.60;;;24.70;46.60;;;;;;5072734;28;20406;-79
2022/12/13 00:53:52;;;;;;;2.72;0.60;;;25.10;45.30;;;;;;5072670;28;20362;-79
2022/12/13 00:56:24;;;;;;;1.98;0.50;;;25.10;44.80;;;;;;5072579;28;20374;-78
2022/12/13 00:58:52;;;;;;;2.05;0.60;;;25.00;45.20;;;;;;5072808;28;20419;-78
2022/12/13 01:01:23;;;;;;;1.65;0.50;;;25.30;45.30;;;;;;5071279;28;20386;-79
2022/12/13 01:03:52;;;;;;;2.58;0.57;;;25.00;45.40;;;;;;5072725;28;20378;-81
2022/12/13 01:06:22;;;;;;;5.32;0.90;;;24.90;45.20;;;;;;5072562;28;20734;-79
2022/12/13 01:08:49;;;;;;;5.22;0.93;;;25.00;46.00;;;;;;5072714;28;20457;-79
2022/12/13 01:11:17;;;;;;;2.10;0.70;;;25.30;45.80;;;;;;5070612;28;20409;-79
2022/12/13 01:13:44;;;;;;;2.92;0.70;;;25.60;45.20;;;;;;5072851;28;20374;-81
2022/12/13 01:16:12;;;;;;;1.90;0.57;;;25.80;44.50;;;;;;5072595;28;20492;-79
2022/12/13 01:18:40;;;;;;;3.00;0.52;;;25.80;44.60;;;;;;5072778;28;20377;-80
2022/12/13 01:21:15;;;;;;;1.60;0.60;;;26.20;46.20;;;;;;5072953;28;20375;-80
2022/12/13 01:23:43;;;;;;;2.92;0.55;;;26.50;44.60;;;;;;5072785;28;20366;-79
2022/12/13 01:26:13;;;;;;;2.17;0.60;;;26.50;45.40;;;;;;5072532;28;20778;-80
2022/12/13 01:28:41;;;;;;;1.92;0.60;;;26.70;44.60;;;;;;5072295;28;20413;-79
2022/12/13 01:31:14;;;;;;;2.70;0.50;;;26.80;44.00;;;;;;5072762;28;20414;-80
2022/12/13 01:33:44;;;;;;;1.08;0.57;;;27.10;44.30;;;;;;5071795;28;20399;-80
2022/12/13 01:36:15;;;;;;;1.67;0.60;;;27.30;43.80;;;;;;5072158;28;20413;-80
2022/12/13 01:38:42;;;;;;;1.27;0.50;;;27.20;43.00;;;;;;5057591;28;20382;-79
2022/12/13 01:41:15;;;;;;;3.40;0.70;;;27.40;44.50;;;;;;5071564;28;20374;-81
2022/12/13 01:43:42;;;;;;;2.23;0.60;;;27.90;43.80;;;;;;5072429;28;20374;-79
2022/12/13 01:46:11;;;;;;;1.52;0.60;;;27.90;42.80;;;;;;5072822;28;20892;-80
2022/12/13 01:48:59;;;;;;;2.90;0.73;;;27.50;42.80;;;;;;5072286;28;20370;-80
2022/12/13 01:51:42;;;;;;;3.50;0.75;;;27.60;44.00;;;;;;5072657;28;20893;-81
2022/12/13 01:54:13;;;;;;;2.30;0.65;;;28.00;43.20;;;;;;5072475;28;20850;-79
2022/12/13 01:56:45;;;;;;;1.98;0.60;;;28.10;43.30;;;;;;5072580;28;20730;-79
2022/12/13 01:59:14;;;;;;;1.37;0.57;;;28.40;42.40;;;;;;5072093;28;20414;-80
2022/12/13 02:01:41;;;;;;;3.45;0.60;;;29.20;42.70;;;;;;5072128;28;20378;-81
2022/12/13 02:04:08;;;;;;;1.03;0.60;;;29.20;43.10;;;;;;5072437;28;20370;-80
2022/12/13 02:06:43;;;;;;;1.52;0.65;;;29.50;43.70;;;;;;5070441;28;20367;-80
2022/12/13 02:09:11;;;;;;;2.00;0.80;;;29.70;41.20;;;;;;5072495;28;20404;-79
2022/12/13 02:11:41;;;;;;;1.83;0.60;;;29.80;42.70;;;;;;5077203;28;20396;-81
2022/12/13 02:14:08;;;;;;;4.15;0.80;;;29.70;42.00;;;;;;5073729;28;20718;-81
2022/12/13 02:16:49;;;;;;;2.07;0.50;;;30.00;42.90;;;;;;5071918;28;20406;-79
2022/12/13 02:19:56;;;;;;;3.47;0.70;;;30.10;42.30;;;;;;5072271;28;20864;-79
2022/12/13 02:22:41;;;;;;;1.80;0.60;;;30.20;41.10;;;;;;5072560;28;20480;-80
2022/12/13 02:25:14;;;;;;;1.50;0.70;;;30.10;41.40;;;;;;5075899;28;20397;-80
2022/12/13 02:28:16;;;;;;;2.70;0.60;;;30.10;41.80;;;;;;5076340;28;20358;-80
2022/12/13 02:31:05;;;;;;;1.35;0.60;;;30.50;39.90;;;;;;5075862;28;20397;-79
2022/12/13 02:33:35;;;;;;;1.45;0.60;;;30.20;40.00;;;;;;5076079;28;20447;-80
2022/12/13 02:36:18;;;;;;;2.10;0.60;;;29.40;41.20;;;;;;5075408;28;20449;-79
2022/12/13 02:38:48;;;;;;;1.05;0.45;;;29.70;41.00;;;;;;5075594;28;20358;-79
2022/12/13 02:41:36;;;;;;;1.92;0.60;;;30.00;40.40;;;;;;5075498;28;20378;-79
2022/12/13 02:44:12;;;;;;;1.40;0.60;;;30.40;40.40;;;;;;5075503;28;20504;-79
2022/12/13 02:46:47;;;;;;;2.30;0.50;;;30.80;39.80;;;;;;5075490;28;20359;-80
2022/12/13 02:49:16;;;;;;;2.80;0.60;;;30.30;40.40;;;;;;5075369;28;20385;-79
2022/12/13 02:51:44;;;;;;;1.35;0.47;;;30.80;39.80;;;;;;5075276;28;20382;-79
2022/12/13 02:54:11;;;;;;;1.50;0.50;;;30.50;39.20;;;;;;5075404;28;20363;-79
2022/12/13 02:56:38;;;;;;;1.55;0.50;;;30.80;39.50;;;;;;5076030;28;20378;-80
2022/12/13 02:59:11;;;;;;;2.67;0.40;;;31.20;39.80;;;;;;5075164;28;20366;-81
2022/12/13 03:01:48;;;;;;;1.58;0.60;;;31.60;39.70;;;;;;5075002;28;20377;-80
2022/12/13 03:06:28;;;;;;;1.20;0.50;;;32.10;39.10;;;;;;5075316;28;20398;-80
2022/12/13 03:07:43;;;;;;;2.25;0.60;;;31.70;37.10;;;;;;5074806;28;20382;-79
2022/12/13 03:10:19;;;;;;;3.27;0.67;;;31.10;39.00;;;;;;5074764;28;20386;-79
2022/12/13 03:15:57;;;;;;;1.60;0.50;;;31.20;39.20;;;;;;5075419;28;20403;-81
2022/12/13 03:18:27;;;;;;;2.13;0.50;;;30.40;39.40;;;;;;5075008;28;20367;-80
2022/12/13 03:20:59;;;;;;;2.00;0.65;;;30.60;39.00;;;;;;5075283;28;20770;-80
2022/12/13 03:23:26;;;;;;;1.55;0.50;;;30.50;40.10;;;;;;5074492;28;20370;-80
2022/12/13 03:26:04;;;;;;;1.92;0.63;;;30.80;39.60;;;;;;5074585;28;20733;-80
2022/12/13 03:28:31;;;;;;;3.00;0.68;;;31.00;39.40;;;;;;5074152;28;20878;-79
2022/12/13 03:30:58;;;;;;;2.67;0.70;;;30.80;39.10;;;;;;5074275;28;20905;-79
2022/12/13 03:33:25;;;;;;;1.80;0.70;;;30.90;38.90;;;;;;5074360;28;20385;-81
2022/12/13 03:35:52;;;;;;;1.58;0.60;;;30.40;37.40;;;;;;5073538;28;20370;-80
2022/12/13 03:38:19;;;;;;;1.45;0.60;;;30.10;37.80;;;;;;5074344;28;20366;-81
2022/12/13 03:40:46;;;;;;;1.77;0.60;;;30.00;38.80;;;;;;5074219;28;20374;-79
2022/12/13 03:43:13;;;;;;;3.05;0.70;;;30.50;38.90;;;;;;5074147;28;20798;-78
2022/12/13 03:45:40;;;;;;;3.05;0.68;;;30.50;38.60;;;;;;5074027;28;20417;-79
2022/12/13 03:48:07;;;;;;;2.25;0.90;;;30.70;37.90;;;;;;5074173;28;20374;-80
2022/12/13 03:50:34;;;;;;;1.80;0.50;;;30.80;38.60;;;;;;5074391;28;20397;-79
2022/12/13 03:53:02;;;;;;;1.83;0.60;;;31.00;38.00;;;;;;5073833;28;20371;-79
2022/12/13 03:55:32;;;;;;;2.90;0.70;;;30.30;38.70;;;;;;5073866;28;20416;-80
2022/12/13 03:57:59;;;;;;;2.45;0.60;;;30.80;39.30;;;;;;5074032;28;20366;-79
2022/12/13 04:00:26;;;;;;;4.10;0.70;;;31.30;38.10;;;;;;5073760;28;20376;-79
2022/12/13 04:02:53;;;;;;;2.97;0.60;;;31.00;39.90;;;;;;5073845;28;20366;-79
2022/12/13 04:05:20;;;;;;;2.42;0.60;;;30.90;38.60;;;;;;5073643;28;20378;-79
2022/12/13 04:07:48;;;;;;;2.25;0.70;;;31.30;38.40;;;;;;5073585;28;20366;-79
2022/12/13 04:10:15;;;;;;;2.40;0.80;;;31.30;36.80;;;;;;5073341;28;20405;-79
2022/12/13 04:15:27;;;;;;;2.55;0.52;;;31.30;37.10;;;;;;5073788;28;20366;-79
2022/12/13 04:17:54;;;;;;;2.80;0.50;;;30.90;38.30;;;;;;5073522;28;20377;-79
2022/12/13 04:20:21;;;;;;;1.93;0.70;;;30.60;37.50;;;;;;5072262;28;20453;-79
2022/12/13 04:22:48;;;;;;;1.80;0.60;;;30.50;38.70;;;;;;5073258;28;20370;-79
2022/12/13 04:25:15;;;;;;;1.35;0.65;;;30.90;39.60;;;;;;5073318;28;20378;-79
2022/12/13 04:27:42;;;;;;;3.28;0.70;;;30.90;38.30;;;;;;5073473;28;20366;-79
2022/12/13 04:30:09;;;;;;;1.33;0.52;;;30.90;38.60;;;;;;5073173;28;20401;-78
2022/12/13 04:32:36;;;;;;;1.10;0.50;;;30.70;38.10;;;;;;5073503;28;20375;-79
2022/12/13 04:35:04;;;;;;;2.90;0.70;;;30.70;37.60;;;;;;5073130;28;20374;-79
2022/12/13 04:37:31;;;;;;;1.67;0.68;;;30.30;36.90;;;;;;5073445;28;20465;-79
2022/12/13 04:39:58;;;;;;;1.65;0.50;;;30.30;37.30;;;;;;5072566;28;20398;-79
2022/12/13 04:42:25;;;;;;;1.70;0.60;;;30.30;37.20;;;;;;5072975;28;20781;-78
2022/12/13 04:44:53;;;;;;;1.17;0.47;;;30.70;38.80;;;;;;5072937;28;20880;-79
2022/12/13 04:47:20;;;;;;;1.05;0.50;;;31.00;37.40;;;;;;5072248;28;20383;-79
2022/12/13 04:49:47;;;;;;;1.52;0.55;;;30.70;36.90;;;;;;5072713;28;20754;-79
2022/12/13 04:52:14;;;;;;;2.67;1.10;;;30.30;37.20;;;;;;5072757;28;20381;-79
2022/12/13 04:54:41;;;;;;;1.42;0.70;;;30.30;37.90;;;;;;5072807;28;20423;-79
2022/12/13 04:57:10;;;;;;;1.70;0.60;;;30.70;37.40;;;;;;5072751;28;20379;-79
2022/12/13 04:59:38;;;;;;;3.53;0.68;;;30.90;38.40;;;;;;5072563;28;20370;-79
2022/12/13 05:02:06;;;;;;;1.50;0.65;;;31.20;37.90;;;;;;5072654;28;20374;-81
2022/12/13 05:04:33;;;;;;;1.98;0.70;;;31.10;38.60;;;;;;5072548;28;20686;-80
2022/12/13 05:07:01;;;;;;;1.67;0.60;;;31.20;38.20;;;;;;5072553;28;20431;-78
2022/12/13 05:09:28;;;;;;;1.90;0.70;;;31.00;37.30;;;;;;5072457;28;20418;-79
2022/12/13 05:11:55;;;;;;;1.23;0.60;;;30.80;37.60;;;;;;5072362;28;20378;-81
2022/12/13 05:14:22;;;;;;;2.42;0.70;;;30.70;36.90;;;;;;5072308;28;20456;-87
2022/12/13 05:16:50;;;;;;;1.27;0.50;;;30.70;36.90;;;;;;5072531;28;20370;-82
2022/12/13 05:19:17;;;;;;;2.75;0.60;;;30.30;36.20;;;;;;5072313;28;20378;-83
2022/12/13 05:21:44;;;;;;;1.50;0.55;;;30.80;36.60;;;;;;5072901;28;20401;-83
2022/12/13 05:24:11;;;;;;;1.10;0.50;;;31.30;36.60;;;;;;5072387;28;20466;-82
2022/12/13 05:26:38;;;;;;;1.85;0.47;;;31.30;37.20;;;;;;5072405;28;20869;-83
2022/12/13 05:29:05;;;;;;;2.00;0.60;;;30.80;36.90;;;;;;5072586;28;20397;-82
2022/12/13 05:31:32;;;;;;;2.42;0.63;;;30.60;38.10;;;;;;5072142;28;20501;-83
2022/12/13 05:33:59;;;;;;;1.87;0.50;;;30.40;37.30;;;;;;5072214;28;20391;-83
2022/12/13 05:36:26;;;;;;;1.40;0.50;;;30.40;38.10;;;;;;5072195;28;20381;-83
2022/12/13 05:38:53;;;;;;;1.52;0.55;;;30.70;37.90;;;;;;5071074;28;20378;-83
2022/12/13 05:41:25;;;;;;;2.20;0.70;;;30.90;37.90;;;;;;5072507;28;20374;-82
2022/12/13 05:43:53;;;;;;;1.65;0.60;;;30.90;37.80;;;;;;5072089;28;20369;-82
2022/12/13 05:46:20;;;;;;;1.60;0.60;;;31.30;36.70;;;;;;5072116;28;20919;-83
2022/12/13 05:48:47;;;;;;;2.10;0.70;;;31.20;37.20;;;;;;5072113;28;20378;-83
2022/12/13 05:51:15;;;;;;;1.23;0.60;;;31.30;37.70;;;;;;5072224;28;20430;-83
2022/12/13 05:53:42;;;;;;;3.05;0.80;;;30.80;37.30;;;;;;5072049;28;20404;-82
2022/12/13 05:56:10;;;;;;;1.85;0.50;;;30.50;37.30;;;;;;5072097;28;20428;-82
2022/12/13 05:58:38;;;;;;;2.60;0.50;;;30.50;37.70;;;;;;5074533;28;20365;-82
2022/12/13 06:01:11;;;;;;;1.75;0.60;;;30.80;37.10;;;;;;5076207;28;20374;-82
2022/12/13 06:03:39;;;;;;;1.40;0.43;;;31.00;36.20;;;;;;5075855;28;20457;-81
2022/12/13 06:06:08;;;;;;;1.40;0.50;;;31.20;37.30;;;;;;5074642;28;20723;-81
2022/12/13 06:08:35;;;;;;;3.30;0.50;;;31.00;37.20;;;;;;5075838;28;20376;-81
2022/12/13 06:11:04;;;;;;;2.65;0.50;;;30.60;37.90;;;;;;5074252;28;20481;-82
2022/12/13 06:13:31;;;;;;;1.45;0.60;;;30.90;37.00;;;;;;5075958;28;20374;-81
2022/12/13 06:16:03;;;;;;;1.92;0.50;;;31.10;36.00;;;;;;5075765;28;20768;-80
2022/12/13 06:18:32;;;;;;;1.95;0.60;;;31.20;36.30;;;;;;5075987;28;20723;-81
2022/12/13 06:21:03;;;;;;;1.67;0.60;;;31.20;36.30;;;;;;5079960;28;20376;-80
2022/12/13 06:23:31;;;;;;;1.88;0.65;;;31.20;36.10;;;;;;5076318;28;20386;-80
2022/12/13 06:26:01;;;;;;;3.47;0.65;;;31.40;36.20;;;;;;5075584;28;20396;-80
2022/12/13 06:28:28;;;;;;;1.70;0.57;;;31.00;36.00;;;;;;5075307;28;20403;-81
2022/12/13 06:30:58;;;;;;;1.67;0.60;;;30.80;36.20;;;;;;5075402;28;20408;-82
2022/12/13 06:33:25;;;;;;;2.03;0.68;;;30.90;35.90;;;;;;5075606;28;20396;-81
2022/12/13 06:35:54;;;;;;;4.18;0.70;;;30.30;36.10;;;;;;5075491;28;20382;-81
2022/12/13 06:38:22;;;;;;;1.80;0.60;;;30.50;36.30;;;;;;5075242;28;20850;-84
2022/12/13 06:40:49;;;;;;;2.97;0.80;;;30.30;36.10;;;;;;5075367;28;20860;-79
2022/12/13 06:43:16;;;;;;;4.80;0.70;;;30.20;36.70;;;;;;5075481;28;20884;-79
2022/12/13 06:45:43;;;;;;;4.32;0.70;;;30.20;36.80;;;;;;5075286;28;20374;-77
2022/12/13 06:48:11;;;;;;;1.60;0.60;;;30.30;36.70;;;;;;5075166;28;20409;-77
2022/12/13 06:50:38;;;;;;;1.60;0.60;;;30.40;36.50;;;;;;5075032;28;20425;-77
2022/12/13 06:53:05;;;;;;;2.72;0.60;;;30.30;35.30;;;;;;5075345;28;20370;-79
2022/12/13 06:55:34;;;;;;;2.67;0.60;;;30.10;34.60;;;;;;5075108;28;20377;-79
2022/12/13 06:58:01;;;;;;;2.67;0.57;;;30.20;35.70;;;;;;5075173;28;20449;-77
2022/12/13 07:00:28;;;;;;;1.15;0.55;;;30.00;35.80;;;;;;5073774;28;20378;-78
2022/12/13 07:02:55;;;;;;;2.17;0.50;;;30.10;36.30;;;;;;5076105;28;20378;-78
2022/12/13 07:05:23;;;;;;;2.53;0.70;;;30.00;36.30;;;;;;5074990;28;20463;-78
2022/12/13 07:07:50;;;;;;;1.50;0.60;;;30.00;36.90;;;;;;5075517;28;20400;-78
2022/12/13 07:10:18;;;;;;;3.47;0.80;;;29.80;36.90;;;;;;5074237;28;20459;-77
2022/12/13 07:12:44;;;;;;;2.58;0.60;;;29.80;36.90;;;;;;5074850;28;20378;-77
2022/12/13 07:15:11;;;;;;;2.83;0.60;;;29.90;36.60;;;;;;5074603;28;20377;-78
2022/12/13 07:17:38;;;;;;;1.50;0.60;;;29.70;36.90;;;;;;5074820;28;20374;-77
2022/12/13 07:20:07;;;;;;;1.27;0.65;;;29.50;36.90;;;;;;5074757;28;20366;-78
2022/12/13 07:22:34;;;;;;;2.95;0.60;;;29.50;37.70;;;;;;5074497;28;20374;-77
2022/12/13 07:25:03;;;;;;;2.50;0.70;;;29.60;37.20;;;;;;5074743;28;20381;-76
2022/12/13 07:27:33;;;;;;;1.90;0.63;;;29.50;37.20;;;;;;5077817;28;20382;-75
2022/12/13 07:30:07;;;;;;;1.90;0.55;;;29.70;36.80;;;;;;5079603;28;20538;-76
2022/12/13 07:32:34;;;;;;;1.60;0.57;;;29.60;36.70;;;;;;5076065;28;20908;-80
2022/12/13 07:35:01;;;;;;;1.48;0.57;;;29.40;37.40;;;;;;5074239;28;20416;-77
2022/12/13 07:37:28;;;;;;;2.08;0.60;;;29.10;37.60;;;;;;5074462;28;20373;-76
2022/12/13 07:39:55;;;;;;;2.35;0.50;;;29.00;37.30;;;;;;5074362;28;20378;-77
2022/12/13 07:42:22;;;;;;;1.60;0.60;;;28.90;37.80;;;;;;5074199;28;20374;-78
2022/12/13 07:44:49;;;;;;;1.35;0.60;;;28.70;38.20;;;;;;5074497;28;20412;-78
2022/12/13 07:47:16;;;;;;;1.25;0.57;;;28.50;38.80;;;;;;5074521;28;20455;-77
2022/12/13 07:49:43;;;;;;;2.72;0.50;;;28.40;38.90;;;;;;5074071;28;20745;-82
2022/12/13 07:52:11;;;;;;;2.67;0.60;;;28.40;38.60;;;;;;5073969;28;20448;-77
2022/12/13 07:54:38;;;;;;;2.22;0.60;;;28.20;38.40;;;;;;5074035;28;20501;-77
2022/12/13 07:57:05;;;;;;;3.55;0.60;;;28.20;39.10;;;;;;5074049;28;20444;-79
2022/12/13 07:59:33;;;;;;;3.55;0.70;;;28.10;38.80;;;;;;5074016;28;20392;-79
2022/12/13 08:02:00;;;;;;;3.80;0.88;;;28.00;39.10;;;;;;5073694;28;20375;-78
2022/12/13 08:04:28;;;;;;;3.47;1.73;;;27.80;39.60;;;;;;5073647;28;20394;-78
2022/12/13 08:06:55;;;;;;;2.75;1.48;;;27.70;40.10;;;;;;5073735;28;20378;-78
2022/12/13 08:09:22;;;;;;;3.55;1.73;;;27.30;40.10;;;;;;5073883;28;20370;-76
2022/12/13 08:11:49;;;;;;;3.58;1.20;;;27.00;40.10;;;;;;5073534;28;20382;-77
2022/12/13 08:14:16;;;;;;;2.63;0.80;;;26.70;41.50;;;;;;5073528;28;20854;-78
2022/12/13 08:16:43;;;;;;;1.48;0.70;;;26.60;41.80;;;;;;5073360;28;20412;-77
2022/12/13 08:19:10;;;;;;;2.38;0.70;;;26.50;41.60;;;;;;5073379;28;20370;-75
2022/12/13 08:21:39;;;;;;;2.20;0.80;;;26.30;42.30;;;;;;5073144;28;20374;-76
2022/12/13 08:24:07;;;;;;;2.63;0.90;;;26.10;41.90;;;;;;5073394;28;20370;-77
2022/12/13 08:26:34;;;;;;;2.63;0.70;;;25.90;41.90;;;;;;5073487;28;20435;-78
2022/12/13 08:29:01;;;;;;;2.08;0.70;;;25.80;42.10;;;;;;5073015;28;20437;-77
2022/12/13 08:31:29;;;;;;;2.15;0.70;;;25.70;42.60;;;;;;5073064;28;20420;-77
2022/12/13 08:33:56;;;;;;;1.73;0.60;;;25.60;42.90;;;;;;5073354;28;20373;-78
2022/12/13 08:36:24;;;;;;;2.42;0.70;;;25.50;42.80;;;;;;5073015;28;20385;-78
2022/12/13 08:38:54;;;;;;;1.98;0.70;;;25.40;43.40;;;;;;5073034;28;20375;-79
2022/12/13 08:41:21;;;;;;;2.63;0.70;;;25.40;43.30;;;;;;5073032;28;20549;-78
2022/12/13 08:43:48;;;;;;;1.80;0.60;;;25.30;44.00;;;;;;5073163;28;20385;-86
2022/12/13 08:46:16;;;;;;;2.63;0.80;;;25.10;43.80;;;;;;5073041;28;20373;-79
2022/12/13 08:48:43;;;;;;;5.55;0.88;;;25.00;43.90;;;;;;5072979;28;20461;-77
2022/12/13 08:51:12;;;;;;;2.42;0.75;;;24.90;44.60;;;;;;5072838;28;20901;-78
2022/12/13 08:53:39;;;;;;;5.88;3.00;;;24.80;44.40;;;;;;5072636;28;20872;-80
2022/12/13 08:56:12;;;;;;;5.40;2.58;;;24.60;44.50;;;;;;5072788;28;20532;-80
2022/12/13 08:58:39;;;;;;;13.35;8.65;;;24.50;44.90;;;;;;5073039;28;20367;-80
2022/12/13 09:01:08;;;;;;;3.63;1.67;;;24.40;45.40;;;;;;5072980;28;20381;-79
2022/12/13 09:03:35;;;;;;;3.33;1.05;;;24.30;45.30;;;;;;5072575;28;20379;-78
2022/12/13 09:06:11;;;;;;;2.67;0.93;;;24.20;45.70;;;;;;5072601;28;20386;-79
2022/12/13 09:08:39;;;;;;;4.25;0.98;;;24.00;46.10;;;;;;5072902;28;20365;-80
2022/12/13 09:11:07;;;;;;;3.72;0.98;;;23.80;46.40;;;;;;5072338;28;20401;-78
2022/12/13 09:13:39;;;;;;;5.50;0.80;;;23.60;46.80;;;;;;5072337;28;20401;-78
2022/12/13 09:16:08;;;;;;;8.33;1.20;;;23.40;47.30;;;;;;5073515;28;20412;-79
2022/12/13 09:18:35;;;;;;;7.40;1.17;;;23.20;49.80;;;;;;5072685;28;20905;-79
2022/12/13 09:21:11;;;;;;;3.95;1.00;;;23.10;53.50;;;;;;5072774;28;20386;-79
2022/12/13 09:23:40;;;;;;;4.03;1.10;;;23.00;57.00;;;;;;5072936;28;20453;-79
2022/12/13 09:26:08;;;;;;;4.93;1.10;;;22.90;59.20;;;;;;5072633;28;20423;-79
2022/12/13 09:28:40;;;;;;;3.25;1.00;;;22.80;60.10;;;;;;5072208;28;20386;-80
2022/12/13 09:31:17;;;;;;;3.25;1.00;;;22.60;61.20;;;;;;5072353;28;20477;-80
2022/12/13 09:33:45;;;;;;;5.30;1.30;;;22.50;61.60;;;;;;5071718;28;20366;-80
2022/12/13 09:36:15;;;;;;;4.05;1.27;;;22.40;61.90;;;;;;5072708;28;20424;-79
2022/12/13 09:38:42;;;;;;;7.10;1.13;;;22.20;62.60;;;;;;5072244;28;20370;-83
2022/12/13 09:41:27;;;;;;;3.10;1.00;;;22.10;60.30;;;;;;5073308;28;20463;-79
2022/12/13 09:44:02;;;;;;;5.07;1.00;;;22.00;59.40;;;;;;5073122;28;20370;-80
2022/12/13 09:46:38;;;;;;;5.47;1.20;;;21.90;62.60;;;;;;5073084;28;20846;-81
2022/12/13 09:49:22;;;;;;;3.38;1.00;;;21.90;63.50;;;;;;5072818;28;20512;-80
2022/12/13 09:51:54;;;;;;;6.05;1.30;;;21.80;62.50;;;;;;5073261;28;20455;-80
2022/12/13 09:54:24;;;;;;;3.22;1.00;;;21.70;62.90;;;;;;5073571;28;20501;-80
2022/12/13 09:56:57;;;;;;;5.20;1.10;;;21.60;64.90;;;;;;5073751;28;20389;-80
2022/12/13 09:59:30;;;;;;;2.97;1.00;;;21.50;66.50;;;;;;5073746;28;20368;-80
2022/12/13 10:02:13;;;;;;;4.68;1.10;;;21.50;68.10;;;;;;5073319;28;20355;-80
2022/12/13 10:04:40;;;;;;;6.17;1.33;;;21.40;68.80;;;;;;5074070;28;20437;-79
2022/12/13 10:07:28;;;;;;;4.95;1.10;;;21.30;69.00;;;;;;5073997;28;20434;-80
2022/12/13 10:10:00;;;;;;;5.35;1.00;;;21.30;69.70;;;;;;5072813;28;20719;-80
2022/12/13 10:12:52;;;;;;;4.38;0.90;;;21.20;70.00;;;;;;5071651;28;20378;-80
2022/12/13 10:15:20;;;;;;;4.72;1.02;;;21.20;70.70;;;;;;5072377;28;20362;-79
2022/12/13 10:17:49;;;;;;;5.82;1.30;;;21.10;70.80;;;;;;5074049;28;20372;-79
2022/12/13 10:20:23;;;;;;;5.80;1.30;;;21.00;71.30;;;;;;5074023;28;20725;-80
2022/12/13 10:22:50;;;;;;;5.10;1.53;;;20.90;71.50;;;;;;5073406;28;20420;-80
2022/12/13 10:25:37;;;;;;;4.72;1.27;;;20.80;71.50;;;;;;5073642;28;20496;-78
2022/12/13 10:28:06;;;;;;;3.97;1.40;;;20.80;71.00;;;;;;5072860;28;20398;-80
2022/12/13 10:30:41;;;;;;;6.30;1.40;;;20.70;71.70;;;;;;5070951;28;20416;-79
2022/12/13 10:33:26;;;;;;;4.93;1.40;;;20.70;72.00;;;;;;5071821;28;20366;-79
2022/12/13 10:36:14;;;;;;;4.43;1.20;;;20.70;72.70;;;;;;5072782;28;20361;-79
2022/12/13 10:38:45;;;;;;;5.82;1.50;;;20.60;72.60;;;;;;5073474;28;20362;-79
2022/12/13 10:41:35;;;;;;;4.47;1.42;;;20.60;72.70;;;;;;5074407;28;20381;-79
2022/12/13 10:44:24;;;;;;;5.28;1.67;;;20.60;72.00;;;;;;5072278;28;20385;-79
2022/12/13 10:47:02;;;;;;;5.78;1.30;;;20.60;71.60;;;;;;5075646;28;20475;-79
2022/12/13 10:49:46;;;;;;;4.13;1.27;;;20.50;72.70;;;;;;5077095;28;20389;-78
2022/12/13 10:52:33;;;;;;;9.43;2.60;;;20.40;71.80;;;;;;5075166;28;20382;-79
2022/12/13 10:55:21;;;;;;;12.00;2.45;;;20.30;72.60;;;;;;5076323;28;20903;-79
2022/12/13 10:57:54;;;;;;;25.83;2.85;;;20.30;72.50;;;;;;5074444;28;20390;-80
2022/12/13 11:00:50;;;;;;;26.73;3.40;;;20.20;73.40;;;;;;5075272;28;20449;-79
2022/12/13 11:03:33;;;;;;;24.50;2.90;;;20.00;73.80;;;;;;5033876;28;20369;-79
2022/12/13 11:06:09;;;;;;;27.63;2.90;;;20.00;74.80;;;;;;5034522;28;20861;-79
2022/12/13 11:08:37;;;;;;;25.67;2.70;;;20.00;75.40;;;;;;5034361;28;20453;-79
2022/12/13 11:11:11;;;;;;;24.63;2.83;;;19.90;75.80;;;;;;5033878;28;20459;-79
2022/12/13 11:13:45;;;;;;;22.02;2.50;;;19.80;76.20;;;;;;5034007;28;20381;-80
2022/12/13 11:16:27;;;;;;;27.25;3.47;;;19.80;77.00;;;;;;5033755;28;20480;-79
2022/12/13 11:18:58;;;;;;;37.72;3.70;;;19.70;77.50;;;;;;5033328;28;20370;-79
2022/12/13 11:21:31;;;;;;;24.17;2.80;;;19.60;78.10;;;;;;5032964;28;20381;-79
2022/12/13 11:24:07;;;;;;;23.00;2.83;;;19.60;78.30;;;;;;5032828;28;20461;-80
2022/12/13 11:26:38;;;;;;;26.67;3.15;;;19.50;78.10;;;;;;5032946;28;20377;-79
2022/12/13 11:29:29;;;;;;;35.47;3.63;;;19.50;78.60;;;;;;5032169;28;20451;-79
2022/12/13 11:32:02;;;;;;;35.22;3.15;;;19.40;79.10;;;;;;5032389;28;20389;-80
2022/12/13 11:34:40;;;;;;;29.15;3.30;;;19.40;79.40;;;;;;5032919;28;20373;-80
2022/12/13 11:37:07;;;;;;;26.83;2.53;;;19.30;79.90;;;;;;5033222;28;20892;-80
2022/12/13 11:39:55;;;;;;;27.70;2.63;;;19.30;80.30;;;;;;5043574;28;20458;-80
2022/12/13 11:42:42;;;;;;;10.70;1.85;;;19.30;80.80;;;;;;5054297;28;20376;-80
2022/12/13 11:45:48;;;;;;;6.63;1.45;;;19.30;81.00;;;;;;5053924;28;20876;-79
2022/12/13 11:48:30;;;;;;;7.00;1.38;;;19.30;81.40;;;;;;4973364;28;20490;-80
2022/12/13 11:51:00;;;;;;;4.30;1.10;;;19.30;81.50;;;;;;4973410;28;20407;-80
2022/12/13 11:53:38;;;;;;;6.85;1.52;;;19.30;81.60;;;;;;4973595;28;20465;-79
2022/12/13 11:56:11;;;;;;;5.85;1.88;;;19.20;81.80;;;;;;4972584;28;20418;-80
2022/12/13 11:59:14;;;;;;;7.57;2.30;;;19.20;82.40;;;;;;4973082;28;20375;-80
2022/12/13 12:02:05;;;;;;;4.75;1.27;;;19.10;82.60;;;;;;4972950;28;20390;-80
2022/12/13 12:04:52;;;;;;;4.28;1.40;;;19.10;83.00;;;;;;4973296;28;20932;-79
2022/12/13 12:07:39;;;;;;;3.90;1.27;;;19.00;83.70;;;;;;4973047;28;20375;-80
2022/12/13 12:10:40;;;;;;;4.75;1.40;;;19.00;84.00;;;;;;4972849;28;20407;-79
2022/12/13 12:13:22;;;;;;;15.60;2.90;;;19.00;84.40;;;;;;4972778;28;20400;-80
2022/12/13 12:16:07;;;;;;;19.83;2.50;;;18.90;85.00;;;;;;4972750;28;20462;-80
2022/12/13 12:18:35;;;;;;;11.40;1.98;;;18.80;85.50;;;;;;4971319;28;20417;-79
2022/12/13 12:21:19;;;;;;;32.53;3.80;;;18.70;86.10;;;;;;4972729;28;20391;-79
2022/12/13 12:23:55;;;;;;;27.52;3.55;;;18.50;87.30;;;;;;4983832;28;20364;-80
2022/12/13 12:26:54;;;;;;;28.75;5.45;;;18.40;88.10;;;;;;5054737;28;20376;-79
2022/12/13 12:29:34;;;;;;;18.15;4.53;;;18.20;89.40;;;;;;5067741;28;20390;-79
2022/12/13 12:32:08;;;;;;;24.58;5.28;;;18.10;90.00;;;;;;5073341;28;20432;-79
2022/12/13 12:34:38;;;;;;;21.77;5.35;;;18.00;90.70;;;;;;5073705;28;20560;-79
2022/12/13 12:37:35;;;;;;;18.40;4.82;;;17.90;91.20;;;;;;5073038;28;20385;-79
2022/12/13 12:40:35;;;;;;;32.58;5.53;;;17.80;91.90;;;;;;5073288;28;20366;-79
2022/12/13 12:43:16;;;;;;;25.40;5.72;;;17.80;92.50;;;;;;5072803;28;20873;-80
2022/12/13 12:45:52;;;;;;;24.48;4.97;;;17.70;93.10;;;;;;5072852;28;20396;-79
2022/12/13 12:48:26;;;;;;;19.88;4.22;;;17.70;93.70;;;;;;5072711;28;20378;-79
2022/12/13 12:51:33;;;;;;;16.33;3.88;;;17.60;94.30;;;;;;5072757;28;20397;-80
2022/12/13 12:54:33;;;;;;;24.25;4.45;;;17.60;95.40;;;;;;5072776;28;20721;-80
2022/12/13 12:57:26;;;;;;;28.65;4.93;;;17.70;95.90;;;;;;5073020;28;20403;-79
2022/12/13 13:00:14;;;;;;;30.20;5.05;;;17.70;96.30;;;;;;5073148;28;20359;-79
2022/12/13 13:03:10;;;;;;;32.88;5.03;;;17.60;96.80;;;;;;5072344;28;20453;-80
2022/12/13 13:05:51;;;;;;;21.45;4.32;;;17.60;97.20;;;;;;5068890;28;20425;-80
2022/12/13 13:09:10;;;;;;;25.55;5.10;;;17.70;97.70;;;;;;5071717;28;20366;-80
2022/12/13 13:11:43;;;;;;;20.97;4.40;;;17.50;98.30;;;;;;5027806;28;20405;-79
2022/12/13 13:14:31;;;;;;;27.23;5.22;;;17.50;98.90;;;;;;5030668;28;20378;-79
2022/12/13 13:17:00;;;;;;;19.38;4.43;;;17.40;99.60;;;;;;5030684;28;20460;-79
2022/12/13 13:19:33;;;;;;;16.87;4.80;;;17.30;99.90;;;;;;5013926;28;20460;-79